DAL1545 KMSP-KBOS
Flight info
| Callsign | DAL1545 |
|---|---|
| Flight time | 2h 12m |
| Altitude | 33000 |
| Route | WLSTN7 GRB DAYYY Q140 HANKK Q935 PONCT JFUND2 |
| Aircraft | A21N/M-SDE2E3FGHIRWXY/LB1 |
Departure
| Time | 2026-05-04 22:46 |
|---|---|
| Airport | Minneapolis–Saint Paul International Airport / Wold–Chamberlain Field (KMSP) |
Arrival
| Time | 2026-05-05 00:58 |
|---|---|
| Airport | Boston Logan International Airport (KBOS) |
| Time | Latitude | Longitude | Altitude | Speed | Heading |
|---|---|---|---|---|---|
| 2026-05-04 22:04 | 44.88584 | -93.21063 | 812 ft | 0 kts | 183° |
| 2026-05-04 22:36 | 44.88597 | -93.21061 | 828 ft | 4 kts | 187° |
| 2026-05-04 22:37 | 44.88624 | -93.21055 | 830 ft | 4 kts | 192° |
| 2026-05-04 22:37 | 44.88650 | -93.21050 | 826 ft | 4 kts | 171° |
| 2026-05-04 22:37 | 44.88664 | -93.21059 | 828 ft | 1 kts | 121° |
| 2026-05-04 22:37 | 44.88650 | -93.21028 | 830 ft | 4 kts | 121° |
| 2026-05-04 22:38 | 44.88644 | -93.21013 | 830 ft | 0 kts | 121° |
| 2026-05-04 22:41 | 44.88639 | -93.20987 | 826 ft | 5 kts | 96° |
| 2026-05-04 22:42 | 44.88636 | -93.20911 | 830 ft | 10 kts | 92° |
| 2026-05-04 22:42 | 44.88607 | -93.20805 | 830 ft | 13 kts | 121° |
| 2026-05-04 22:42 | 44.88559 | -93.20695 | 827 ft | 14 kts | 120° |
| 2026-05-04 22:42 | 44.88508 | -93.20575 | 825 ft | 15 kts | 122° |
| 2026-05-04 22:43 | 44.88451 | -93.20448 | 829 ft | 16 kts | 121° |
| 2026-05-04 22:43 | 44.88392 | -93.20310 | 830 ft | 17 kts | 121° |
| 2026-05-04 22:43 | 44.88330 | -93.20165 | 831 ft | 18 kts | 121° |
| 2026-05-04 22:43 | 44.88265 | -93.20014 | 830 ft | 19 kts | 122° |
| 2026-05-04 22:44 | 44.88195 | -93.19856 | 829 ft | 19 kts | 122° |
| 2026-05-04 22:44 | 44.88125 | -93.19694 | 830 ft | 20 kts | 120° |
| 2026-05-04 22:44 | 44.88072 | -93.19565 | 830 ft | 15 kts | 120° |
| 2026-05-04 22:44 | 44.88082 | -93.19473 | 828 ft | 10 kts | 59° |
| 2026-05-04 22:45 | 44.88144 | -93.19439 | 830 ft | 12 kts | 324° |
| 2026-05-04 22:45 | 44.88336 | -93.19882 | 832 ft | 76 kts | 303° |
| 2026-05-04 22:45 | 44.88737 | -93.20800 | 829 ft | 142 kts | 302° |
| 2026-05-04 22:46 | 44.89303 | -93.22094 | 1310 ft | 160 kts | 302° |
| 2026-05-04 22:46 | 44.89895 | -93.23474 | 2190 ft | 168 kts | 301° |
| 2026-05-04 22:46 | 44.90501 | -93.24957 | 2815 ft | 182 kts | 300° |
| 2026-05-04 22:46 | 44.91368 | -93.26336 | 3237 ft | 200 kts | 326° |
| 2026-05-04 22:47 | 44.92790 | -93.26931 | 3485 ft | 231 kts | 354° |
| 2026-05-04 22:47 | 44.94449 | -93.26472 | 3921 ft | 257 kts | 20° |
| 2026-05-04 22:47 | 44.95953 | -93.25015 | 4700 ft | 268 kts | 37° |
| 2026-05-04 22:47 | 44.97164 | -93.22968 | 5502 ft | 276 kts | 50° |
| 2026-05-04 22:48 | 44.98253 | -93.20715 | 6281 ft | 279 kts | 51° |
| 2026-05-04 22:48 | 44.99349 | -93.18422 | 6986 ft | 284 kts | 51° |
| 2026-05-04 22:48 | 45.00472 | -93.16095 | 7648 ft | 289 kts | 50° |
| 2026-05-04 22:48 | 45.01619 | -93.13728 | 8293 ft | 295 kts | 49° |
| 2026-05-04 22:49 | 45.02792 | -93.11312 | 8943 ft | 301 kts | 49° |
| 2026-05-04 22:49 | 45.03991 | -93.08853 | 9583 ft | 306 kts | 48° |
| 2026-05-04 22:49 | 45.05216 | -93.06345 | 10137 ft | 313 kts | 48° |
| 2026-05-04 22:49 | 45.06486 | -93.03752 | 10501 ft | 329 kts | 49° |
| 2026-05-04 22:50 | 45.07817 | -93.01025 | 10769 ft | 346 kts | 49° |
| 2026-05-04 22:50 | 45.09217 | -92.98155 | 11021 ft | 363 kts | 49° |
| 2026-05-04 22:50 | 45.10684 | -92.95144 | 11269 ft | 379 kts | 49° |
| 2026-05-04 22:50 | 45.12208 | -92.92003 | 11512 ft | 395 kts | 50° |
| 2026-05-04 22:51 | 45.13779 | -92.88751 | 11974 ft | 403 kts | 50° |
| 2026-05-04 22:51 | 45.15369 | -92.85457 | 12526 ft | 409 kts | 50° |
| 2026-05-04 22:51 | 45.16989 | -92.82106 | 13104 ft | 414 kts | 50° |
| 2026-05-04 22:51 | 45.18630 | -92.78714 | 13668 ft | 420 kts | 50° |
| 2026-05-04 22:52 | 45.20284 | -92.75283 | 14159 ft | 425 kts | 50° |
| 2026-05-04 22:52 | 45.21965 | -92.71804 | 14675 ft | 430 kts | 50° |
| 2026-05-04 22:52 | 45.23658 | -92.68286 | 15184 ft | 435 kts | 50° |
| 2026-05-04 22:52 | 45.25186 | -92.64514 | 15628 ft | 448 kts | 63° |
| 2026-05-04 22:53 | 45.26037 | -92.60213 | 16105 ft | 458 kts | 77° |
| 2026-05-04 22:53 | 45.26620 | -92.55738 | 16580 ft | 463 kts | 77° |
| 2026-05-04 22:53 | 45.27205 | -92.51213 | 17041 ft | 468 kts | 77° |
| 2026-05-04 22:53 | 45.27814 | -92.46720 | 17503 ft | 472 kts | 76° |
| 2026-05-04 22:54 | 45.28456 | -92.42121 | 17958 ft | 477 kts | 76° |
| 2026-05-04 22:54 | 45.29111 | -92.37478 | 18371 ft | 482 kts | 76° |
| 2026-05-04 22:54 | 45.29770 | -92.32793 | 18795 ft | 485 kts | 76° |
| 2026-05-04 22:54 | 45.30430 | -92.28081 | 19229 ft | 488 kts | 77° |
| 2026-05-04 22:55 | 45.31094 | -92.23329 | 19648 ft | 491 kts | 77° |
| 2026-05-04 22:55 | 45.31760 | -92.18552 | 20070 ft | 495 kts | 77° |
| 2026-05-04 22:55 | 45.32427 | -92.13741 | 20487 ft | 498 kts | 77° |
| 2026-05-04 22:55 | 45.33094 | -92.08899 | 20914 ft | 501 kts | 77° |
| 2026-05-04 22:56 | 45.33770 | -92.04023 | 21338 ft | 504 kts | 77° |
| 2026-05-04 22:56 | 45.34445 | -91.99127 | 21742 ft | 507 kts | 77° |
| 2026-05-04 22:56 | 45.35124 | -91.94189 | 22139 ft | 510 kts | 78° |
| 2026-05-04 22:56 | 45.35802 | -91.89222 | 22525 ft | 513 kts | 78° |
| 2026-05-04 22:57 | 45.36483 | -91.84222 | 22936 ft | 516 kts | 78° |
| 2026-05-04 22:57 | 45.37161 | -91.79197 | 23335 ft | 520 kts | 78° |
| 2026-05-04 22:57 | 45.37845 | -91.74134 | 23586 ft | 524 kts | 78° |
| 2026-05-04 22:57 | 45.38537 | -91.69017 | 23888 ft | 527 kts | 78° |
| 2026-05-04 22:58 | 45.39229 | -91.63874 | 24214 ft | 530 kts | 78° |
| 2026-05-04 22:58 | 45.39920 | -91.58711 | 24542 ft | 532 kts | 78° |
| 2026-05-04 22:58 | 45.40610 | -91.53528 | 24856 ft | 534 kts | 78° |
| 2026-05-04 22:58 | 45.41300 | -91.48327 | 25206 ft | 535 kts | 79° |
| 2026-05-04 22:59 | 45.41991 | -91.43094 | 25522 ft | 537 kts | 79° |
| 2026-05-04 22:59 | 45.42681 | -91.37856 | 25807 ft | 540 kts | 79° |
| 2026-05-04 22:59 | 45.43373 | -91.32597 | 26120 ft | 542 kts | 79° |
| 2026-05-04 22:59 | 45.44066 | -91.27315 | 26428 ft | 544 kts | 79° |
| 2026-05-04 23:00 | 45.44749 | -91.22078 | 26726 ft | 546 kts | 79° |
| 2026-05-04 23:00 | 45.45451 | -91.16680 | 27028 ft | 548 kts | 79° |
| 2026-05-04 23:00 | 45.46132 | -91.11399 | 27319 ft | 551 kts | 79° |
| 2026-05-04 23:00 | 45.46750 | -91.06001 | 27596 ft | 553 kts | 85° |
| 2026-05-04 23:01 | 45.46696 | -91.00551 | 27900 ft | 549 kts | 101° |
| 2026-05-04 23:01 | 45.45762 | -90.95336 | 28236 ft | 539 kts | 117° |
| 2026-05-04 23:01 | 45.44226 | -90.90510 | 28538 ft | 534 kts | 122° |
| 2026-05-04 23:01 | 45.42612 | -90.85752 | 28891 ft | 533 kts | 122° |
| 2026-05-04 23:02 | 45.41040 | -90.80969 | 29247 ft | 534 kts | 121° |
| 2026-05-04 23:02 | 45.39509 | -90.76152 | 29564 ft | 534 kts | 120° |
| 2026-05-04 23:02 | 45.38007 | -90.71342 | 29885 ft | 532 kts | 120° |
| 2026-05-04 23:02 | 45.36511 | -90.66538 | 30249 ft | 530 kts | 120° |
| 2026-05-04 23:03 | 45.35019 | -90.61754 | 30514 ft | 529 kts | 120° |
| 2026-05-04 23:03 | 45.33521 | -90.56971 | 30760 ft | 529 kts | 120° |
| 2026-05-04 23:03 | 45.32021 | -90.52201 | 30996 ft | 530 kts | 120° |
| 2026-05-04 23:03 | 45.30515 | -90.47409 | 31227 ft | 530 kts | 120° |
| 2026-05-04 23:04 | 45.29012 | -90.42634 | 31469 ft | 530 kts | 120° |
| 2026-05-04 23:04 | 45.27498 | -90.37862 | 31690 ft | 530 kts | 120° |
| 2026-05-04 23:04 | 45.25985 | -90.33107 | 31966 ft | 528 kts | 120° |
| 2026-05-04 23:04 | 45.24983 | -90.29960 | 32119 ft | 528 kts | 120° |
| 2026-05-04 23:05 | 45.23474 | -90.25211 | 32329 ft | 528 kts | 120° |
| 2026-05-04 23:05 | 45.21963 | -90.20439 | 32538 ft | 529 kts | 120° |
| 2026-05-04 23:05 | 45.18942 | -90.10917 | 32531 ft | 529 kts | 120° |
| 2026-05-04 23:06 | 45.15913 | -90.01441 | 32532 ft | 527 kts | 120° |
| 2026-05-04 23:06 | 45.12873 | -89.91984 | 32523 ft | 528 kts | 120° |
| 2026-05-04 23:07 | 45.09819 | -89.82518 | 32517 ft | 528 kts | 120° |
| 2026-05-04 23:07 | 45.06764 | -89.73072 | 32516 ft | 528 kts | 120° |
| 2026-05-04 23:08 | 45.03694 | -89.63615 | 32515 ft | 528 kts | 120° |
| 2026-05-04 23:08 | 45.00620 | -89.54184 | 32517 ft | 528 kts | 120° |
| 2026-05-04 23:09 | 44.97552 | -89.44802 | 32494 ft | 522 kts | 120° |
| 2026-05-04 23:09 | 44.94497 | -89.35496 | 32497 ft | 522 kts | 120° |
| 2026-05-04 23:10 | 44.91435 | -89.26198 | 32503 ft | 522 kts | 120° |
| 2026-05-04 23:10 | 44.88368 | -89.16919 | 32471 ft | 521 kts | 120° |
| 2026-05-04 23:11 | 44.85320 | -89.07734 | 32469 ft | 520 kts | 120° |
| 2026-05-04 23:11 | 44.82248 | -88.98504 | 32466 ft | 520 kts | 120° |
| 2026-05-04 23:12 | 44.79165 | -88.89273 | 32483 ft | 520 kts | 121° |
| 2026-05-04 23:12 | 44.76076 | -88.80063 | 32491 ft | 519 kts | 121° |
| 2026-05-04 23:13 | 44.72986 | -88.70875 | 32497 ft | 519 kts | 121° |
| 2026-05-04 23:13 | 44.69892 | -88.61704 | 32472 ft | 519 kts | 121° |
| 2026-05-04 23:14 | 44.66792 | -88.52552 | 32468 ft | 519 kts | 121° |
| 2026-05-04 23:14 | 44.63686 | -88.43413 | 32463 ft | 518 kts | 121° |
| 2026-05-04 23:15 | 44.60574 | -88.34286 | 32443 ft | 518 kts | 121° |
| 2026-05-04 23:15 | 44.57460 | -88.25186 | 32429 ft | 516 kts | 121° |
| 2026-05-04 23:16 | 44.54345 | -88.16118 | 32442 ft | 516 kts | 121° |
| 2026-05-04 23:16 | 44.51252 | -88.07104 | 32437 ft | 516 kts | 121° |
| 2026-05-04 23:17 | 44.48156 | -87.98023 | 32423 ft | 518 kts | 118° |
| 2026-05-04 23:17 | 44.45411 | -87.88675 | 32424 ft | 527 kts | 108° |
| 2026-05-04 23:18 | 44.44808 | -87.83584 | 32435 ft | 532 kts | 97° |
| 2026-05-04 23:18 | 44.44494 | -87.78431 | 32436 ft | 530 kts | 96° |
| 2026-05-04 23:18 | 44.43894 | -87.68201 | 32421 ft | 527 kts | 96° |
| 2026-05-04 23:19 | 44.43219 | -87.58002 | 32429 ft | 526 kts | 97° |
| 2026-05-04 23:19 | 44.42522 | -87.47807 | 32434 ft | 526 kts | 97° |
| 2026-05-04 23:20 | 44.41818 | -87.37604 | 32445 ft | 526 kts | 97° |
| 2026-05-04 23:20 | 44.41106 | -87.27422 | 32447 ft | 526 kts | 97° |
| 2026-05-04 23:21 | 44.40390 | -87.17308 | 32458 ft | 526 kts | 97° |
| 2026-05-04 23:21 | 44.39663 | -87.07140 | 32468 ft | 526 kts | 97° |
| 2026-05-04 23:22 | 44.38923 | -86.96966 | 32468 ft | 526 kts | 97° |
| 2026-05-04 23:22 | 44.38173 | -86.86800 | 32470 ft | 525 kts | 97° |
| 2026-05-04 23:23 | 44.37416 | -86.76585 | 32437 ft | 525 kts | 97° |
| 2026-05-04 23:23 | 44.36655 | -86.66519 | 32463 ft | 522 kts | 97° |
| 2026-05-04 23:24 | 44.35887 | -86.56407 | 32448 ft | 523 kts | 97° |
| 2026-05-04 23:24 | 44.35112 | -86.46335 | 32459 ft | 521 kts | 97° |
| 2026-05-04 23:25 | 44.34324 | -86.36279 | 32461 ft | 521 kts | 98° |
| 2026-05-04 23:25 | 44.33532 | -86.26209 | 32456 ft | 521 kts | 98° |
| 2026-05-04 23:26 | 44.32729 | -86.16144 | 32451 ft | 520 kts | 98° |
| 2026-05-04 23:26 | 44.31919 | -86.06135 | 32458 ft | 519 kts | 98° |
| 2026-05-04 23:27 | 44.31101 | -85.96126 | 32462 ft | 519 kts | 98° |
| 2026-05-04 23:27 | 44.30276 | -85.86110 | 32460 ft | 519 kts | 98° |
| 2026-05-04 23:28 | 44.29447 | -85.76165 | 32458 ft | 520 kts | 98° |
| 2026-05-04 23:28 | 44.28604 | -85.66152 | 32453 ft | 519 kts | 98° |
| 2026-05-04 23:29 | 44.27753 | -85.56148 | 32450 ft | 519 kts | 98° |
| 2026-05-04 23:29 | 44.26891 | -85.46147 | 32451 ft | 519 kts | 98° |
| 2026-05-04 23:30 | 44.26024 | -85.36165 | 32443 ft | 516 kts | 99° |
| 2026-05-04 23:30 | 44.25150 | -85.26229 | 32469 ft | 516 kts | 99° |
| 2026-05-04 23:31 | 44.24267 | -85.16293 | 32476 ft | 516 kts | 99° |
| 2026-05-04 23:31 | 44.23377 | -85.06358 | 32478 ft | 516 kts | 99° |
| 2026-05-04 23:32 | 44.22474 | -84.96427 | 32483 ft | 517 kts | 99° |
| 2026-05-04 23:32 | 44.21567 | -84.86491 | 32481 ft | 517 kts | 99° |
| 2026-05-04 23:33 | 44.20652 | -84.76562 | 32491 ft | 517 kts | 99° |
| 2026-05-04 23:33 | 44.19726 | -84.66633 | 32475 ft | 516 kts | 99° |
| 2026-05-04 23:34 | 44.18788 | -84.56703 | 32482 ft | 517 kts | 99° |
| 2026-05-04 23:34 | 44.17846 | -84.46763 | 32486 ft | 517 kts | 99° |
| 2026-05-04 23:35 | 44.17033 | -84.36809 | 32476 ft | 518 kts | 91° |
| 2026-05-04 23:35 | 44.17395 | -84.26779 | 32480 ft | 518 kts | 85° |
| 2026-05-04 23:36 | 44.17879 | -84.16787 | 32473 ft | 517 kts | 86° |
| 2026-05-04 23:36 | 44.18330 | -84.06790 | 32477 ft | 517 kts | 86° |
| 2026-05-04 23:37 | 44.18764 | -83.96786 | 32470 ft | 517 kts | 86° |
| 2026-05-04 23:37 | 44.19191 | -83.86789 | 32463 ft | 516 kts | 86° |
| 2026-05-04 23:38 | 44.19609 | -83.76825 | 32469 ft | 515 kts | 86° |
| 2026-05-04 23:38 | 44.20021 | -83.66857 | 32466 ft | 515 kts | 86° |
| 2026-05-04 23:39 | 44.20423 | -83.56891 | 32474 ft | 515 kts | 86° |
| 2026-05-04 23:39 | 44.20813 | -83.46939 | 32462 ft | 513 kts | 86° |
| 2026-05-04 23:40 | 44.21194 | -83.37053 | 32467 ft | 513 kts | 86° |
| 2026-05-04 23:40 | 44.21570 | -83.27114 | 32467 ft | 513 kts | 86° |
| 2026-05-04 23:41 | 44.21934 | -83.17167 | 32486 ft | 514 kts | 87° |
| 2026-05-04 23:41 | 44.22281 | -83.07191 | 32493 ft | 515 kts | 87° |
| 2026-05-04 23:42 | 44.22629 | -82.97210 | 32476 ft | 515 kts | 87° |
| 2026-05-04 23:42 | 44.22974 | -82.87231 | 32484 ft | 515 kts | 87° |
| 2026-05-04 23:43 | 44.23307 | -82.77249 | 32481 ft | 515 kts | 87° |
| 2026-05-04 23:43 | 44.23626 | -82.67264 | 32487 ft | 515 kts | 87° |
| 2026-05-04 23:44 | 44.23939 | -82.57371 | 32500 ft | 514 kts | 87° |
| 2026-05-04 23:44 | 44.24246 | -82.47410 | 32496 ft | 514 kts | 87° |
| 2026-05-04 23:45 | 44.24541 | -82.37439 | 32508 ft | 514 kts | 87° |
| 2026-05-04 23:45 | 44.24675 | -82.27506 | 32501 ft | 512 kts | 95° |
| 2026-05-04 23:46 | 44.23207 | -82.17843 | 32515 ft | 509 kts | 108° |
| 2026-05-04 23:46 | 44.21332 | -82.08316 | 32506 ft | 509 kts | 107° |
| 2026-05-04 23:47 | 44.19492 | -81.98774 | 32508 ft | 509 kts | 107° |
| 2026-05-04 23:47 | 44.17664 | -81.89241 | 32529 ft | 510 kts | 107° |
| 2026-05-04 23:48 | 44.16135 | -81.81309 | 32527 ft | 510 kts | 107° |
| 2026-05-04 23:48 | 44.14289 | -81.71781 | 32532 ft | 510 kts | 107° |
| 2026-05-04 23:49 | 44.12431 | -81.62245 | 32534 ft | 508 kts | 107° |
| 2026-05-04 23:49 | 44.10574 | -81.52746 | 32518 ft | 508 kts | 107° |
| 2026-05-04 23:50 | 44.08714 | -81.43293 | 32550 ft | 505 kts | 107° |
| 2026-05-04 23:50 | 44.06854 | -81.33872 | 32553 ft | 505 kts | 108° |
| 2026-05-04 23:51 | 44.04982 | -81.24459 | 32550 ft | 504 kts | 108° |
| 2026-05-04 23:51 | 44.03112 | -81.15082 | 32561 ft | 503 kts | 108° |
| 2026-05-04 23:52 | 44.01233 | -81.05718 | 32574 ft | 503 kts | 108° |
| 2026-05-04 23:52 | 43.99348 | -80.96364 | 32575 ft | 503 kts | 108° |
| 2026-05-04 23:53 | 43.97459 | -80.87015 | 32582 ft | 503 kts | 108° |
| 2026-05-04 23:53 | 43.95559 | -80.77675 | 32586 ft | 503 kts | 108° |
| 2026-05-04 23:54 | 43.93648 | -80.68324 | 32600 ft | 512 kts | 108° |
| 2026-05-04 23:54 | 43.91696 | -80.58823 | 32599 ft | 512 kts | 108° |
| 2026-05-04 23:55 | 43.89741 | -80.49326 | 32592 ft | 512 kts | 107° |
| 2026-05-04 23:56 | 43.86791 | -80.35091 | 32605 ft | 512 kts | 107° |
| 2026-05-04 23:56 | 43.84814 | -80.25613 | 32606 ft | 512 kts | 108° |
| 2026-05-04 23:57 | 43.82829 | -80.16138 | 32610 ft | 512 kts | 108° |
| 2026-05-04 23:57 | 43.80837 | -80.06673 | 32609 ft | 513 kts | 107° |
| 2026-05-04 23:58 | 43.78832 | -79.97205 | 32612 ft | 513 kts | 108° |
| 2026-05-04 23:58 | 43.76809 | -79.87750 | 32610 ft | 510 kts | 108° |
| 2026-05-04 23:59 | 43.74791 | -79.78352 | 32623 ft | 510 kts | 108° |
| 2026-05-04 23:59 | 43.72771 | -79.68980 | 32624 ft | 509 kts | 108° |
| 2026-05-05 00:00 | 43.70743 | -79.59609 | 32628 ft | 509 kts | 108° |
| 2026-05-05 00:00 | 43.68704 | -79.50252 | 32629 ft | 509 kts | 108° |
| 2026-05-05 00:01 | 43.66661 | -79.40893 | 32628 ft | 508 kts | 108° |
| 2026-05-05 00:01 | 43.64444 | -79.31642 | 32628 ft | 507 kts | 112° |
| 2026-05-05 00:02 | 43.61911 | -79.22556 | 32629 ft | 507 kts | 112° |
| 2026-05-05 00:02 | 43.59382 | -79.13541 | 32629 ft | 507 kts | 112° |
| 2026-05-05 00:03 | 43.56832 | -79.04462 | 32640 ft | 507 kts | 112° |
| 2026-05-05 00:03 | 43.54280 | -78.95407 | 32641 ft | 507 kts | 112° |
| 2026-05-05 00:04 | 43.51717 | -78.86351 | 32640 ft | 506 kts | 112° |
| 2026-05-05 00:04 | 43.49149 | -78.77325 | 32645 ft | 506 kts | 112° |
| 2026-05-05 00:05 | 43.46575 | -78.68292 | 32624 ft | 506 kts | 112° |
| 2026-05-05 00:05 | 43.44005 | -78.59299 | 32648 ft | 504 kts | 112° |
| 2026-05-05 00:06 | 43.41426 | -78.50320 | 32650 ft | 505 kts | 112° |
| 2026-05-05 00:06 | 43.38842 | -78.41341 | 32653 ft | 505 kts | 112° |
| 2026-05-05 00:07 | 43.36249 | -78.32364 | 32662 ft | 505 kts | 112° |
| 2026-05-05 00:07 | 43.33649 | -78.23398 | 32673 ft | 505 kts | 112° |
| 2026-05-05 00:08 | 43.31036 | -78.14446 | 32676 ft | 505 kts | 114° |
| 2026-05-05 00:08 | 43.27760 | -78.05952 | 32686 ft | 503 kts | 121° |
| 2026-05-05 00:09 | 43.24270 | -77.97620 | 32685 ft | 504 kts | 121° |
| 2026-05-05 00:09 | 43.20784 | -77.89294 | 32681 ft | 503 kts | 121° |
| 2026-05-05 00:10 | 43.17298 | -77.80976 | 32683 ft | 503 kts | 121° |
| 2026-05-05 00:10 | 43.13814 | -77.72684 | 32698 ft | 501 kts | 121° |
| 2026-05-05 00:11 | 43.10331 | -77.64416 | 32700 ft | 501 kts | 121° |
| 2026-05-05 00:11 | 43.06845 | -77.56164 | 32698 ft | 501 kts | 121° |
| 2026-05-05 00:12 | 43.03345 | -77.47914 | 32696 ft | 501 kts | 121° |
| 2026-05-05 00:12 | 42.99847 | -77.39678 | 32716 ft | 501 kts | 121° |
| 2026-05-05 00:13 | 42.96340 | -77.31450 | 32720 ft | 501 kts | 121° |
| 2026-05-05 00:13 | 42.92829 | -77.23231 | 32720 ft | 501 kts | 121° |
| 2026-05-05 00:14 | 42.89837 | -77.14663 | 32705 ft | 501 kts | 104° |
| 2026-05-05 00:14 | 42.89254 | -77.10006 | 32709 ft | 498 kts | 92° |
| 2026-05-05 00:14 | 42.89095 | -77.05293 | 32715 ft | 497 kts | 90° |
| 2026-05-05 00:15 | 42.88872 | -76.95862 | 32717 ft | 496 kts | 90° |
| 2026-05-05 00:15 | 42.88585 | -76.86453 | 32704 ft | 497 kts | 90° |
| 2026-05-05 00:16 | 42.88286 | -76.77070 | 32708 ft | 495 kts | 90° |
| 2026-05-05 00:16 | 42.87979 | -76.67690 | 32707 ft | 495 kts | 90° |
| 2026-05-05 00:17 | 42.87654 | -76.58300 | 32717 ft | 496 kts | 90° |
| 2026-05-05 00:17 | 42.87325 | -76.48911 | 32712 ft | 496 kts | 90° |
| 2026-05-05 00:18 | 42.86992 | -76.39530 | 32715 ft | 494 kts | 90° |
| 2026-05-05 00:18 | 42.86655 | -76.30177 | 32721 ft | 493 kts | 90° |
| 2026-05-05 00:19 | 42.86305 | -76.20850 | 32724 ft | 493 kts | 90° |
| 2026-05-05 00:19 | 42.85961 | -76.11513 | 32728 ft | 494 kts | 90° |
| 2026-05-05 00:20 | 42.85598 | -76.02164 | 32733 ft | 494 kts | 90° |
| 2026-05-05 00:20 | 42.85220 | -75.92807 | 32749 ft | 495 kts | 90° |
| 2026-05-05 00:21 | 42.84846 | -75.83515 | 32759 ft | 492 kts | 90° |
| 2026-05-05 00:21 | 42.84462 | -75.74219 | 32765 ft | 491 kts | 90° |
| 2026-05-05 00:22 | 42.84066 | -75.64938 | 32770 ft | 490 kts | 90° |
| 2026-05-05 00:22 | 42.83663 | -75.55658 | 32768 ft | 490 kts | 91° |
| 2026-05-05 00:23 | 42.83252 | -75.46377 | 32769 ft | 491 kts | 91° |
| 2026-05-05 00:23 | 42.82836 | -75.37105 | 32772 ft | 490 kts | 91° |
| 2026-05-05 00:24 | 42.82411 | -75.27843 | 32772 ft | 490 kts | 91° |
| 2026-05-05 00:24 | 42.81976 | -75.18565 | 32774 ft | 490 kts | 91° |
| 2026-05-05 00:25 | 42.81535 | -75.09294 | 32775 ft | 490 kts | 91° |
| 2026-05-05 00:25 | 42.81090 | -75.00037 | 32782 ft | 490 kts | 91° |
| 2026-05-05 00:26 | 42.80633 | -74.90757 | 32781 ft | 491 kts | 91° |
| 2026-05-05 00:26 | 42.80171 | -74.81487 | 32778 ft | 491 kts | 91° |
| 2026-05-05 00:27 | 42.79703 | -74.72272 | 32782 ft | 491 kts | 91° |
| 2026-05-05 00:27 | 42.79223 | -74.63004 | 32790 ft | 491 kts | 91° |
| 2026-05-05 00:28 | 42.78816 | -74.55226 | 32783 ft | 493 kts | 91° |
| 2026-05-05 00:28 | 42.78241 | -74.44402 | 32782 ft | 493 kts | 91° |
| 2026-05-05 00:29 | 42.77740 | -74.35104 | 32788 ft | 493 kts | 91° |
| 2026-05-05 00:29 | 42.77314 | -74.27318 | 32783 ft | 491 kts | 91° |
| 2026-05-05 00:30 | 42.76800 | -74.18040 | 32784 ft | 492 kts | 91° |
| 2026-05-05 00:30 | 42.76275 | -74.08742 | 32785 ft | 493 kts | 91° |
| 2026-05-05 00:31 | 42.75747 | -73.99507 | 32792 ft | 492 kts | 91° |
| 2026-05-05 00:31 | 42.75206 | -73.90153 | 32781 ft | 492 kts | 91° |
| 2026-05-05 00:32 | 42.74704 | -73.80905 | 32780 ft | 492 kts | 88° |
| 2026-05-05 00:32 | 42.74615 | -73.71617 | 32780 ft | 491 kts | 87° |
| 2026-05-05 00:33 | 42.74556 | -73.62326 | 32783 ft | 491 kts | 86° |
| 2026-05-05 00:33 | 42.74486 | -73.53057 | 32784 ft | 489 kts | 87° |
| 2026-05-05 00:34 | 42.74407 | -73.43793 | 32808 ft | 490 kts | 87° |
| 2026-05-05 00:34 | 42.74320 | -73.34512 | 32814 ft | 490 kts | 87° |
| 2026-05-05 00:35 | 42.74225 | -73.25309 | 32820 ft | 488 kts | 87° |
| 2026-05-05 00:35 | 42.74172 | -73.20722 | 32565 ft | 482 kts | 87° |
| 2026-05-05 00:35 | 42.74120 | -73.16165 | 32231 ft | 482 kts | 87° |
| 2026-05-05 00:35 | 42.74015 | -73.11619 | 31717 ft | 480 kts | 91° |
| 2026-05-05 00:36 | 42.73584 | -73.07123 | 31135 ft | 478 kts | 96° |
| 2026-05-05 00:36 | 42.73065 | -73.02665 | 30538 ft | 475 kts | 96° |
| 2026-05-05 00:36 | 42.72546 | -72.98240 | 29969 ft | 472 kts | 96° |
| 2026-05-05 00:36 | 42.72036 | -72.93854 | 29329 ft | 469 kts | 97° |
| 2026-05-05 00:37 | 42.71527 | -72.89483 | 28690 ft | 466 kts | 97° |
| 2026-05-05 00:37 | 42.71021 | -72.85140 | 28108 ft | 461 kts | 97° |
| 2026-05-05 00:37 | 42.70520 | -72.80865 | 27559 ft | 456 kts | 97° |
| 2026-05-05 00:37 | 42.70022 | -72.76619 | 26982 ft | 453 kts | 97° |
| 2026-05-05 00:38 | 42.69525 | -72.72404 | 26404 ft | 451 kts | 97° |
| 2026-05-05 00:38 | 42.69028 | -72.68204 | 25832 ft | 448 kts | 97° |
| 2026-05-05 00:38 | 42.68530 | -72.64030 | 25288 ft | 445 kts | 97° |
| 2026-05-05 00:38 | 42.68035 | -72.59902 | 24753 ft | 442 kts | 98° |
| 2026-05-05 00:39 | 42.67542 | -72.55827 | 24205 ft | 441 kts | 98° |
| 2026-05-05 00:39 | 42.67043 | -72.51716 | 23661 ft | 440 kts | 98° |
| 2026-05-05 00:39 | 42.66544 | -72.47625 | 23055 ft | 438 kts | 98° |
| 2026-05-05 00:39 | 42.66046 | -72.43556 | 22454 ft | 435 kts | 98° |
| 2026-05-05 00:40 | 42.65551 | -72.39520 | 21881 ft | 431 kts | 98° |
| 2026-05-05 00:40 | 42.65059 | -72.35521 | 21312 ft | 426 kts | 99° |
| 2026-05-05 00:40 | 42.64571 | -72.31588 | 20805 ft | 420 kts | 99° |
| 2026-05-05 00:40 | 42.64108 | -72.27687 | 20214 ft | 417 kts | 98° |
| 2026-05-05 00:41 | 42.63663 | -72.23809 | 19679 ft | 413 kts | 98° |
| 2026-05-05 00:41 | 42.63221 | -72.19974 | 19183 ft | 409 kts | 99° |
| 2026-05-05 00:41 | 42.62778 | -72.16163 | 18716 ft | 408 kts | 99° |
| 2026-05-05 00:41 | 42.62335 | -72.12359 | 18245 ft | 406 kts | 99° |
| 2026-05-05 00:42 | 42.61894 | -72.08602 | 17786 ft | 400 kts | 99° |
| 2026-05-05 00:42 | 42.61453 | -72.04887 | 17341 ft | 397 kts | 99° |
| 2026-05-05 00:42 | 42.61010 | -72.01206 | 16893 ft | 394 kts | 99° |
| 2026-05-05 00:42 | 42.60556 | -71.97554 | 16454 ft | 391 kts | 100° |
| 2026-05-05 00:43 | 42.60105 | -71.93933 | 16022 ft | 389 kts | 100° |
| 2026-05-05 00:43 | 42.59656 | -71.90322 | 15586 ft | 387 kts | 100° |
| 2026-05-05 00:43 | 42.59206 | -71.86721 | 15174 ft | 386 kts | 100° |
| 2026-05-05 00:43 | 42.58759 | -71.83137 | 14755 ft | 385 kts | 100° |
| 2026-05-05 00:44 | 42.58238 | -71.79571 | 14322 ft | 385 kts | 102° |
| 2026-05-05 00:44 | 42.57685 | -71.76059 | 13883 ft | 385 kts | 102° |
| 2026-05-05 00:44 | 42.57117 | -71.72497 | 13423 ft | 385 kts | 102° |
| 2026-05-05 00:44 | 42.56559 | -71.68956 | 12959 ft | 384 kts | 102° |
| 2026-05-05 00:45 | 42.55998 | -71.65427 | 12521 ft | 382 kts | 102° |
| 2026-05-05 00:45 | 42.55436 | -71.61901 | 12051 ft | 379 kts | 102° |
| 2026-05-05 00:45 | 42.54850 | -71.58459 | 11641 ft | 371 kts | 105° |
| 2026-05-05 00:45 | 42.54176 | -71.55142 | 11350 ft | 358 kts | 106° |
| 2026-05-05 00:46 | 42.53516 | -71.51953 | 10972 ft | 346 kts | 106° |
| 2026-05-05 00:46 | 42.52868 | -71.48839 | 10462 ft | 341 kts | 106° |
| 2026-05-05 00:46 | 42.52227 | -71.45761 | 10047 ft | 338 kts | 105° |
| 2026-05-05 00:46 | 42.51592 | -71.42711 | 9659 ft | 336 kts | 105° |
| 2026-05-05 00:47 | 42.50963 | -71.39693 | 9273 ft | 329 kts | 105° |
| 2026-05-05 00:47 | 42.50349 | -71.36754 | 8997 ft | 318 kts | 106° |
| 2026-05-05 00:47 | 42.49769 | -71.33907 | 8636 ft | 311 kts | 105° |
| 2026-05-05 00:47 | 42.49213 | -71.31096 | 8189 ft | 307 kts | 105° |
| 2026-05-05 00:48 | 42.48689 | -71.28304 | 7731 ft | 305 kts | 104° |
| 2026-05-05 00:48 | 42.48160 | -71.25483 | 7259 ft | 303 kts | 105° |
| 2026-05-05 00:48 | 42.47629 | -71.22736 | 6831 ft | 301 kts | 105° |
| 2026-05-05 00:48 | 42.47091 | -71.20000 | 6368 ft | 300 kts | 106° |
| 2026-05-05 00:49 | 42.46557 | -71.17307 | 5980 ft | 293 kts | 106° |
| 2026-05-05 00:49 | 42.46256 | -71.14609 | 5641 ft | 288 kts | 84° |
| 2026-05-05 00:49 | 42.46856 | -71.12108 | 5367 ft | 277 kts | 57° |
| 2026-05-05 00:49 | 42.47846 | -71.09899 | 5032 ft | 272 kts | 56° |
| 2026-05-05 00:50 | 42.48797 | -71.07708 | 4692 ft | 267 kts | 57° |
| 2026-05-05 00:50 | 42.49968 | -71.05829 | 4293 ft | 257 kts | 29° |
| 2026-05-05 00:50 | 42.51557 | -71.04858 | 4009 ft | 248 kts | 13° |
| 2026-05-05 00:50 | 42.53195 | -71.04142 | 3693 ft | 247 kts | 13° |
| 2026-05-05 00:51 | 42.54826 | -71.03415 | 3283 ft | 246 kts | 14° |
| 2026-05-05 00:51 | 42.56417 | -71.02628 | 2999 ft | 242 kts | 26° |
| 2026-05-05 00:51 | 42.57669 | -71.01096 | 2935 ft | 247 kts | 58° |
| 2026-05-05 00:51 | 42.58239 | -70.98926 | 2944 ft | 244 kts | 89° |
| 2026-05-05 00:52 | 42.58028 | -70.96695 | 2970 ft | 237 kts | 111° |
| 2026-05-05 00:52 | 42.57385 | -70.94687 | 2968 ft | 228 kts | 135° |
| 2026-05-05 00:52 | 42.56200 | -70.93431 | 2966 ft | 205 kts | 167° |
| 2026-05-05 00:52 | 42.54923 | -70.92950 | 2949 ft | 177 kts | 175° |
| 2026-05-05 00:53 | 42.53739 | -70.92626 | 2992 ft | 166 kts | 184° |
| 2026-05-05 00:53 | 42.52632 | -70.92813 | 2985 ft | 159 kts | 200° |
| 2026-05-05 00:53 | 42.51578 | -70.93248 | 2893 ft | 157 kts | 204° |
| 2026-05-05 00:53 | 42.50540 | -70.93716 | 2717 ft | 156 kts | 204° |
| 2026-05-05 00:54 | 42.49526 | -70.94201 | 2513 ft | 154 kts | 204° |
| 2026-05-05 00:54 | 42.48522 | -70.94686 | 2310 ft | 152 kts | 204° |
| 2026-05-05 00:54 | 42.47532 | -70.95167 | 2108 ft | 150 kts | 205° |
| 2026-05-05 00:54 | 42.46571 | -70.95633 | 1966 ft | 148 kts | 205° |
| 2026-05-05 00:55 | 42.45611 | -70.96099 | 1786 ft | 145 kts | 205° |
| 2026-05-05 00:55 | 42.44690 | -70.96544 | 1606 ft | 130 kts | 205° |
| 2026-05-05 00:55 | 42.43889 | -70.96934 | 1405 ft | 119 kts | 205° |
| 2026-05-05 00:55 | 42.43115 | -70.97309 | 1230 ft | 118 kts | 204° |
| 2026-05-05 00:56 | 42.42340 | -70.97685 | 1056 ft | 121 kts | 203° |
| 2026-05-05 00:56 | 42.41548 | -70.98070 | 906 ft | 121 kts | 202° |
| 2026-05-05 00:56 | 42.40734 | -70.98464 | 739 ft | 126 kts | 201° |
| 2026-05-05 00:56 | 42.39894 | -70.98870 | 586 ft | 130 kts | 202° |
| 2026-05-05 00:57 | 42.39046 | -70.99280 | 417 ft | 128 kts | 201° |
| 2026-05-05 00:57 | 42.38201 | -70.99692 | 264 ft | 126 kts | 199° |
| 2026-05-05 00:57 | 42.37377 | -71.00090 | 46 ft | 127 kts | 199° |
| 2026-05-05 00:57 | 42.36725 | -71.00398 | 31 ft | 60 kts | 200° |
| 2026-05-05 00:58 | 42.36386 | -71.00572 | 31 ft | 50 kts | 197° |
| 2026-05-05 00:58 | 42.36124 | -71.00701 | 32 ft | 36 kts | 198° |
| 2026-05-05 00:58 | 42.35972 | -71.00832 | 32 ft | 27 kts | 227° |
| 2026-05-05 00:58 | 42.35865 | -71.01001 | 31 ft | 14 kts | 232° |
| 2026-05-05 00:59 | 42.35834 | -71.01129 | 31 ft | 14 kts | 276° |
| 2026-05-05 00:59 | 42.35843 | -71.01233 | 31 ft | 12 kts | 276° |
| 2026-05-05 00:59 | 42.35846 | -71.01268 | 31 ft | 0 kts | 278° |
| 2026-05-05 01:03 | 42.35856 | -71.01357 | 31 ft | 14 kts | 270° |
| 2026-05-05 01:03 | 42.35797 | -71.01466 | 31 ft | 16 kts | 262° |
| 2026-05-05 01:03 | 42.35822 | -71.01617 | 31 ft | 17 kts | 286° |
| 2026-05-05 01:03 | 42.35844 | -71.01783 | 31 ft | 19 kts | 279° |
| 2026-05-05 01:04 | 42.35896 | -71.01948 | 31 ft | 20 kts | 302° |
| 2026-05-05 01:04 | 42.36023 | -71.02238 | 31 ft | 14 kts | 303° |
| 2026-05-05 01:04 | 42.36096 | -71.02330 | 31 ft | 15 kts | 334° |
| 2026-05-05 01:05 | 42.36202 | -71.02346 | 31 ft | 12 kts | 5° |
| 2026-05-05 01:05 | 42.36285 | -71.02339 | 31 ft | 11 kts | 3° |
| 2026-05-05 01:05 | 42.36349 | -71.02334 | 31 ft | 9 kts | 2° |
| 2026-05-05 01:05 | 42.36392 | -71.02346 | 31 ft | 7 kts | 334° |
| 2026-05-05 01:06 | 42.36424 | -71.02396 | 31 ft | 5 kts | 279° |
| 2026-05-05 01:06 | 42.36426 | -71.02432 | 31 ft | 2 kts | 273° |
| 2026-05-05 01:06 | 42.36427 | -71.02441 | 31 ft | 0 kts | 273° |